Time,TemperatureF,DewpointF,PressureIn,WindDirection,WindDirectionDegrees,WindSpeedMPH,WindSpeedGustMPH,Humidity,HourlyPrecipIn,Conditions,Clouds,dailyrainin,SoftwareType,DateUTC
2013-10-01 00:00:00,58.2,53.0,29.84,South,179,0.0,0.0,83,0.00,,,0.00,weatherlink.com 1.10,2013-10-01 05:00:00,
2013-10-01 00:15:00,57.6,53.0,29.84,South,179,0.0,0.0,83,0.00,,,0.00,weatherlink.com 1.10,2013-10-01 05:15:00,
2013-10-01 00:30:00,56.9,52.0,29.84,South,179,0.0,0.0,84,0.00,,,0.00,weatherlink.com 1.10,2013-10-01 05:30:00,
2013-10-01 00:45:00,56.6,53.0,29.84,South,181,0.0,0.0,86,0.00,,,0.00,weatherlink.com 1.10,2013-10-01 05:45:00,
2013-10-01 01:00:00,56.2,52.0,29.84,South,179,0.0,0.0,86,0.00,,,0.00,weatherlink.com 1.10,2013-10-01 06:00:00,
2013-10-01 01:15:00,56.0,53.0,29.84,South,179,0.0,0.0,88,0.00,,,0.00,weatherlink.com 1.10,2013-10-01 06:15:00,
2013-10-01 01:30:00,55.9,52.0,29.84,South,179,0.0,0.0,88,0.00,,,0.00,weatherlink.com 1.10,2013-10-01 06:30:00,
2013-10-01 01:45:00,56.2,53.0,29.84,South,179,0.0,0.0,88,0.00,,,0.00,weatherlink.com 1.10,2013-10-01 06:45:00,
2013-10-01 02:00:00,56.3,53.0,29.84,South,181,0.0,0.0,89,0.00,,,0.00,weatherlink.com 1.10,2013-10-01 07:00:00,
2013-10-01 02:15:00,56.7,54.0,29.84,SE,145,0.0,0.0,90,0.00,,,0.00,weatherlink.com 1.10,2013-10-01 07:15:00,
2013-10-01 02:30:00,58.6,55.0,29.84,SSE,163,0.0,1.0,87,0.00,,,0.00,weatherlink.com 1.10,2013-10-01 07:30:00,
2013-10-01 02:45:00,58.9,55.0,29.84,SSW,198,0.0,1.0,86,0.00,,,0.00,weatherlink.com 1.10,2013-10-01 07:45:00,
2013-10-01 03:00:00,59.0,55.0,29.84,SSW,201,0.0,1.0,86,0.00,,,0.00,weatherlink.com 1.10,2013-10-01 08:00:00,
2013-10-01 03:15:00,58.1,54.0,29.84,SSE,158,0.0,0.0,87,0.00,,,0.00,weatherlink.com 1.10,2013-10-01 08:15:00,
2013-10-01 03:30:00,57.2,54.0,29.84,SSE,158,0.0,0.0,89,0.00,,,0.00,weatherlink.com 1.10,2013-10-01 08:30:00,
2013-10-01 03:45:00,57.2,55.0,29.84,SSE,153,0.0,0.0,91,0.00,,,0.00,weatherlink.com 1.10,2013-10-01 08:45:00,
2013-10-01 04:00:00,57.5,55.0,29.84,SE,131,0.0,0.0,92,0.00,,,0.00,weatherlink.com 1.10,2013-10-01 09:00:00,
2013-10-01 04:15:00,57.5,55.0,29.84,SSE,162,0.0,0.0,92,0.00,,,0.00,weatherlink.com 1.10,2013-10-01 09:15:00,
2013-10-01 04:30:00,57.5,56.0,29.84,SSE,152,0.0,0.0,93,0.00,,,0.00,weatherlink.com 1.10,2013-10-01 09:30:00,
2013-10-01 04:45:00,56.0,54.0,29.84,SSE,152,0.0,0.0,91,0.00,,,0.00,weatherlink.com 1.10,2013-10-01 09:45:00,
2013-10-01 05:00:00,55.2,53.0,29.85,SSE,152,0.0,0.0,92,0.00,,,0.00,weatherlink.com 1.10,2013-10-01 10:00:00,
2013-10-01 05:15:00,54.6,53.0,29.85,SSE,152,0.0,0.0,93,0.00,,,0.00,weatherlink.com 1.10,2013-10-01 10:15:00,
2013-10-01 05:30:00,54.5,53.0,29.86,SSE,152,0.0,0.0,94,0.00,,,0.00,weatherlink.com 1.10,2013-10-01 10:30:00,
2013-10-01 05:45:00,-999.0,-99.9,29.86,North,-999,-999.0,-999.0,-999,0.00,,,0.00,weatherlink.com 1.10,2013-10-01 10:45:00,
2013-10-01 06:00:00,-999.0,-99.9,29.86,North,-999,-999.0,-999.0,-999,0.00,,,0.00,weatherlink.com 1.10,2013-10-01 11:00:00,
2013-10-01 06:15:00,-999.0,-99.9,29.86,North,-999,-999.0,-999.0,-999,0.00,,,0.00,weatherlink.com 1.10,2013-10-01 11:15:00,
2013-10-01 06:31:00,-999.0,-99.9,29.86,North,-999,-999.0,-999.0,-999,0.00,,,0.00,weatherlink.com 1.10,2013-10-01 11:31:00,
2013-10-01 06:46:00,-999.0,-99.9,29.87,North,-999,-999.0,-999.0,-999,0.00,,,0.00,weatherlink.com 1.10,2013-10-01 11:46:00,
2013-10-01 07:01:00,-999.0,-99.9,29.88,North,-999,-999.0,-999.0,-999,0.00,,,0.00,weatherlink.com 1.10,2013-10-01 12:01:00,
2013-10-01 07:16:00,-999.0,-99.9,29.88,North,-999,-999.0,-999.0,-999,0.00,,,0.00,weatherlink.com 1.10,2013-10-01 12:16:00,
2013-10-01 07:31:00,-999.0,-99.9,29.88,North,-999,-999.0,-999.0,-999,0.00,,,0.00,weatherlink.com 1.10,2013-10-01 12:31:00,
2013-10-01 07:46:00,-999.0,-99.9,29.88,North,-999,-999.0,-999.0,-999,0.00,,,0.00,weatherlink.com 1.10,2013-10-01 12:46:00,
2013-10-01 08:01:00,-999.0,-99.9,29.89,North,-999,-999.0,-999.0,-999,0.00,,,0.00,weatherlink.com 1.10,2013-10-01 13:01:00,
2013-10-01 08:16:00,61.4,61.0,29.90,SE,141,0.0,2.0,97,0.00,,,0.00,weatherlink.com 1.10,2013-10-01 13:16:00,
2013-10-01 08:31:00,62.2,61.0,29.90,SE,141,0.0,1.0,97,0.00,,,0.00,weatherlink.com 1.10,2013-10-01 13:31:00,
2013-10-01 08:46:00,63.2,62.0,29.91,ESE,111,0.0,3.0,97,0.00,,,0.00,weatherlink.com 1.10,2013-10-01 13:46:00,
2013-10-01 09:01:00,64.4,64.0,29.91,SE,127,0.0,5.0,97,0.00,,,0.00,weatherlink.com 1.10,2013-10-01 14:01:00,
2013-10-01 09:16:00,66.6,66.0,29.91,South,173,5.0,6.0,97,0.00,,,0.00,weatherlink.com 1.10,2013-10-01 14:16:00,
2013-10-01 09:31:00,69.1,68.0,29.91,SSE,162,5.0,7.0,97,0.00,,,0.00,weatherlink.com 1.10,2013-10-01 14:31:00,
2013-10-01 09:46:00,72.0,67.0,29.92,ESE,123,3.0,9.0,85,0.00,,,0.00,weatherlink.com 1.10,2013-10-01 14:46:00,
2013-10-01 10:01:00,73.4,65.0,29.92,SSE,159,11.0,11.0,76,0.00,,,0.00,weatherlink.com 1.10,2013-10-01 15:01:00,
2013-10-01 10:16:00,74.4,66.0,29.92,SE,125,4.0,12.0,75,0.00,,,0.00,weatherlink.com 1.10,2013-10-01 15:16:00,
2013-10-01 10:31:00,75.7,66.0,29.92,South,172,3.0,8.0,73,0.00,,,0.00,weatherlink.com 1.10,2013-10-01 15:31:00,
2013-10-01 10:46:00,77.4,67.0,29.92,SE,131,4.0,9.0,70,0.00,,,0.00,weatherlink.com 1.10,2013-10-01 15:46:00,
2013-10-01 11:01:00,79.2,66.0,29.91,SW,224,10.0,11.0,64,0.00,,,0.00,weatherlink.com 1.10,2013-10-01 16:01:00,
2013-10-01 11:17:00,80.5,66.0,29.91,SSE,165,4.0,12.0,61,0.00,,,0.00,weatherlink.com 1.10,2013-10-01 16:17:00,
2013-10-01 11:31:00,81.6,64.0,29.91,SSW,205,5.0,12.0,56,0.00,,,0.00,weatherlink.com 1.10,2013-10-01 16:31:00,
2013-10-01 11:46:00,82.6,64.0,29.91,East,96,4.0,14.0,54,0.00,,,0.00,weatherlink.com 1.10,2013-10-01 16:46:00,
2013-10-01 12:01:00,83.1,65.0,29.90,ESE,105,6.0,15.0,54,0.00,,,0.00,weatherlink.com 1.10,2013-10-01 17:01:00,
2013-10-01 12:16:00,83.9,66.0,29.90,SW,221,8.0,16.0,55,0.00,,,0.00,weatherlink.com 1.10,2013-10-01 17:16:00,
2013-10-01 12:31:00,84.7,66.0,29.90,SSE,156,6.0,15.0,54,0.00,,,0.00,weatherlink.com 1.10,2013-10-01 17:31:00,
2013-10-01 12:46:00,85.3,67.0,29.90,SE,136,6.0,14.0,54,0.00,,,0.00,weatherlink.com 1.10,2013-10-01 17:46:00,
2013-10-01 13:01:00,86.1,67.0,29.90,SE,135,8.0,13.0,53,0.00,,,0.00,weatherlink.com 1.10,2013-10-01 18:01:00,
2013-10-01 13:16:00,86.2,68.0,29.89,SE,141,9.0,16.0,54,0.00,,,0.00,weatherlink.com 1.10,2013-10-01 18:16:00,
2013-10-01 13:31:00,86.4,67.0,29.89,SSE,161,7.0,17.0,53,0.00,,,0.00,weatherlink.com 1.10,2013-10-01 18:31:00,
2013-10-01 13:46:00,86.5,67.0,29.88,SSE,155,3.0,14.0,53,0.00,,,0.00,weatherlink.com 1.10,2013-10-01 18:46:00,
2013-10-01 14:01:00,87.0,68.0,29.87,SE,136,7.0,13.0,53,0.00,,,0.00,weatherlink.com 1.10,2013-10-01 19:01:00,
2013-10-01 14:16:00,87.7,67.0,29.87,SE,146,8.0,13.0,51,0.00,,,0.00,weatherlink.com 1.10,2013-10-01 19:16:00,
2013-10-01 14:31:00,87.6,67.0,29.86,SE,127,6.0,15.0,50,0.00,,,0.00,weatherlink.com 1.10,2013-10-01 19:31:00,
2013-10-01 14:46:00,88.1,65.0,29.86,SSE,155,7.0,10.0,46,0.00,,,0.00,weatherlink.com 1.10,2013-10-01 19:46:00,
2013-10-01 15:16:00,88.2,64.0,29.85,South,169,6.0,15.0,45,0.00,,,0.00,weatherlink.com 1.10,2013-10-01 20:16:00,
2013-10-01 15:31:00,88.7,64.0,29.85,SE,131,1.0,12.0,44,0.00,,,0.00,weatherlink.com 1.10,2013-10-01 20:31:00,
2013-10-01 15:46:00,88.9,62.0,29.86,SE,143,5.0,13.0,41,0.00,,,0.00,weatherlink.com 1.10,2013-10-01 20:46:00,
2013-10-01 16:01:00,88.4,63.0,29.85,East,100,6.0,14.0,43,0.00,,,0.00,weatherlink.com 1.10,2013-10-01 21:01:00,
2013-10-01 16:16:00,88.6,61.0,29.85,SE,146,5.0,12.0,40,0.00,,,0.00,weatherlink.com 1.10,2013-10-01 21:16:00,
2013-10-01 16:31:00,88.2,62.0,29.85,South,169,5.0,15.0,41,0.00,,,0.00,weatherlink.com 1.10,2013-10-01 21:31:00,
2013-10-01 16:46:00,88.2,61.0,29.85,SW,218,2.0,12.0,40,0.00,,,0.00,weatherlink.com 1.10,2013-10-01 21:46:00,
2013-10-01 17:01:00,88.2,62.0,29.84,SE,124,7.0,11.0,42,0.00,,,0.00,weatherlink.com 1.10,2013-10-01 22:01:00,
2013-10-01 17:16:00,87.9,62.0,29.85,SSE,150,3.0,12.0,42,0.00,,,0.00,weatherlink.com 1.10,2013-10-01 22:16:00,
2013-10-01 17:31:00,87.4,62.0,29.85,SSE,164,6.0,9.0,43,0.00,,,0.00,weatherlink.com 1.10,2013-10-01 22:31:00,
2013-10-01 17:46:00,87.0,62.0,29.85,SSW,212,2.0,11.0,43,0.00,,,0.00,weatherlink.com 1.10,2013-10-01 22:46:00,
2013-10-01 18:02:00,86.5,61.0,29.86,SSE,165,12.0,12.0,42,0.00,,,0.00,weatherlink.com 1.10,2013-10-01 23:02:00,
2013-10-01 18:17:00,85.8,61.0,29.86,SE,132,8.0,9.0,44,0.00,,,0.00,weatherlink.com 1.10,2013-10-01 23:17:00,
2013-10-01 18:31:00,84.6,62.0,29.86,South,181,3.0,8.0,46,0.00,,,0.00,weatherlink.com 1.10,2013-10-01 23:31:00,
2013-10-01 18:46:00,83.7,62.0,29.86,SSE,162,6.0,6.0,48,0.00,,,0.00,weatherlink.com 1.10,2013-10-01 23:46:00,
2013-10-01 19:01:00,82.2,62.0,29.86,SSE,150,2.0,4.0,51,0.00,,,0.00,weatherlink.com 1.10,2013-10-02 00:01:00,
2013-10-01 19:16:00,80.6,62.0,29.86,SSE,159,0.0,3.0,54,0.00,,,0.00,weatherlink.com 1.10,2013-10-02 00:16:00,
2013-10-01 19:32:00,78.7,62.0,29.86,SSE,167,0.0,1.0,57,0.00,,,0.00,weatherlink.com 1.10,2013-10-02 00:32:00,
2013-10-01 19:47:00,76.7,62.0,29.86,SSE,156,0.0,0.0,61,0.00,,,0.00,weatherlink.com 1.10,2013-10-02 00:47:00,
2013-10-01 20:02:00,74.4,62.0,29.87,SSE,156,0.0,0.0,65,0.00,,,0.00,weatherlink.com 1.10,2013-10-02 01:02:00,
2013-10-01 20:17:00,72.5,62.0,29.87,SSE,157,0.0,0.0,70,0.00,,,0.00,weatherlink.com 1.10,2013-10-02 01:17:00,
2013-10-01 20:32:00,70.9,61.0,29.88,SSW,205,0.0,1.0,72,0.00,,,0.00,weatherlink.com 1.10,2013-10-02 01:32:00,
2013-10-01 20:47:00,71.2,61.0,29.89,SSW,208,0.0,1.0,71,0.00,,,0.00,weatherlink.com 1.10,2013-10-02 01:47:00,
2013-10-01 21:02:00,71.5,62.0,29.89,SE,142,0.0,1.0,71,0.00,,,0.00,weatherlink.com 1.10,2013-10-02 02:02:00,
2013-10-01 21:17:00,71.2,62.0,29.89,SSE,158,0.0,0.0,72,0.00,,,0.00,weatherlink.com 1.10,2013-10-02 02:17:00,
2013-10-01 21:32:00,70.0,62.0,29.90,SSE,157,1.0,1.0,75,0.00,,,0.00,weatherlink.com 1.10,2013-10-02 02:32:00,
2013-10-01 21:47:00,70.3,62.0,29.91,SE,131,0.0,1.0,74,0.00,,,0.00,weatherlink.com 1.10,2013-10-02 02:47:00,
2013-10-01 22:02:00,70.7,62.0,29.91,SSE,157,0.0,1.0,74,0.00,,,0.00,weatherlink.com 1.10,2013-10-02 03:02:00,
2013-10-01 22:17:00,70.8,62.0,29.91,SE,142,0.0,1.0,74,0.00,,,0.00,weatherlink.com 1.10,2013-10-02 03:17:00,
2013-10-01 22:32:00,70.4,63.0,29.91,SE,140,0.0,1.0,76,0.00,,,0.00,weatherlink.com 1.10,2013-10-02 03:32:00,
2013-10-01 22:47:00,69.8,62.0,29.91,SE,136,1.0,1.0,77,0.00,,,0.00,weatherlink.com 1.10,2013-10-02 03:47:00,
2013-10-01 23:02:00,70.0,63.0,29.91,SE,146,0.0,3.0,78,0.00,,,0.00,weatherlink.com 1.10,2013-10-02 04:02:00,
2013-10-01 23:17:00,70.1,63.0,29.91,SSE,150,0.0,0.0,79,0.00,,,0.00,weatherlink.com 1.10,2013-10-02 04:17:00,
2013-10-01 23:32:00,70.9,65.0,29.91,SSE,159,0.0,4.0,81,0.00,,,0.00,weatherlink.com 1.10,2013-10-02 04:32:00,
2013-10-01 23:47:00,71.7,66.0,29.91,SE,137,1.0,4.0,82,0.00,,,0.00,weatherlink.com 1.10,2013-10-02 04:47:00,